EIDW

Dublin Airport

Dublin, Ireland
METAR EIDW 172100Z 22004KT 9999 FEW028 SCT045 01/M00 Q1018 NOSIG
Observed Flight Rules
Feb-17 @ 21:00 UTC (38 minutes ago) Visual Flight Rules
Wind Visibility Clouds
220° at 4 knots 10,000+ meters
  • Few at 2,800' AGL
  • Scattered at 4,500' AGL
Temperatures Readings
Current 1°C / 34°F
Dewpoint 0°C / 32°F
Humidity 93%
Altimeter 30.06" Hg
Pressure 1018 hPa
Elevation 85
METAR EIDW 172100Z 22004KT 9999 FEW028 SCT045 01/M00 Q1018 NOSIG
Observed Flight Rules
Feb-17 @ 21:00 UTC
(38 minutes ago)
VFR
Wind Visibility
220° at 4 knots 10,000+ meters
Clouds
  • Few at 2,800' AGL
  • Scattered at 4,500' AGL
Temperature Dewpoint
1°C / 34°F 0°C / 32°F
Humidity Altimeter Pressure
93% 30.06" Hg 1018 hPa